Cape Lisburne, Alaska
Current Conditions -  °F | °C
As of 11:55 AM on Monday 24 Nov 2014 (Local Time) from PALU Reporting Station
Few Clouds Few Clouds  
Wind Chill: -10°   Ceiling: Unl
Heat Index:   Visibility: 10mi
Dew Point:   Wind: 13mph
Humidity: 84%   Direction: 110°ESE
Pressure: 29.9"   Gusts: NA
Location:  68.88°N, 166.11°W
Report Text: PALU 242055Z AUTO 11011KT 10SM FEW150 M14/M16 A2990 RMK AO2 SLP125 T11411163 52016
Loading
Personal Weather Stations






























Interactive Weather Map New forecast layout! Learn more

10-Day Weather Forecast

Advertisements
Track Severe Weather on mobile